createdAt,value
2022-08-29T00:02:12.550Z,9.15
2022-08-29T00:04:40.770Z,7.57
2022-08-29T00:07:11.207Z,8.80
2022-08-29T00:09:39.312Z,14.52
2022-08-29T00:12:08.364Z,7.65
2022-08-29T00:14:36.840Z,9.55
2022-08-29T00:17:05.368Z,7.72
2022-08-29T00:19:33.703Z,8.27
2022-08-29T00:22:01.743Z,10.35
2022-08-29T00:24:31.400Z,9.73
2022-08-29T00:27:00.382Z,10.18
2022-08-29T00:29:29.576Z,7.35
2022-08-29T00:31:57.785Z,9.30
2022-08-29T00:34:26.271Z,10.68
2022-08-29T00:36:54.929Z,7.20
2022-08-29T00:39:23.817Z,9.70
2022-08-29T00:41:53.303Z,8.43
2022-08-29T00:44:21.671Z,7.25
2022-08-29T00:46:53.783Z,9.90
2022-08-29T00:49:34.015Z,11.45
2022-08-29T00:52:10.901Z,7.18
2022-08-29T00:54:39.980Z,17.23
2022-08-29T00:57:09.992Z,8.75
2022-08-29T00:59:40.854Z,7.50
2022-08-29T01:02:11.203Z,8.38
2022-08-29T01:04:40.568Z,13.80
2022-08-29T01:07:09.869Z,12.38
2022-08-29T01:09:39.787Z,12.60
2022-08-29T01:12:18.225Z,6.53
2022-08-29T01:14:51.359Z,9.02
2022-08-29T01:17:23.570Z,11.73
2022-08-29T01:19:57.461Z,11.73
2022-08-29T01:22:57.502Z,12.48
2022-08-29T01:25:31.399Z,10.05
2022-08-29T01:28:06.042Z,11.50
2022-08-29T01:30:34.554Z,10.45
2022-08-29T01:33:03.126Z,9.75
2022-08-29T01:35:33.259Z,14.20
2022-08-29T01:38:02.119Z,10.13
2022-08-29T01:40:32.375Z,7.38
2022-08-29T01:43:01.083Z,13.05
2022-08-29T01:45:29.264Z,8.50
2022-08-29T01:47:59.908Z,8.57
2022-08-29T01:50:32.879Z,8.07
2022-08-29T01:53:01.177Z,9.63
2022-08-29T01:55:29.418Z,11.52
2022-08-29T01:57:58.928Z,11.40
2022-08-29T02:00:27.114Z,10.80
2022-08-29T02:02:56.865Z,12.32
2022-08-29T02:05:25.044Z,9.35
2022-08-29T02:07:53.317Z,11.80
2022-08-29T02:10:21.799Z,17.45
2022-08-29T02:12:50.081Z,11.75
2022-08-29T02:15:19.479Z,13.82
2022-08-29T02:17:48.756Z,9.93
2022-08-29T02:20:17.190Z,10.63
2022-08-29T02:22:45.762Z,12.98
2022-08-29T02:25:31.343Z,10.50
2022-08-29T02:27:59.862Z,9.80
2022-08-29T02:30:29.362Z,10.35
2022-08-29T02:32:57.622Z,13.48
2022-08-29T02:35:26.038Z,13.25
2022-08-29T02:37:56.395Z,14.05
2022-08-29T02:40:31.380Z,13.40
2022-08-29T02:43:01.383Z,11.23
2022-08-29T02:45:31.562Z,10.63
2022-08-29T02:48:00.104Z,11.30
2022-08-29T02:50:28.267Z,11.80
2022-08-29T02:52:56.634Z,14.82
2022-08-29T02:55:26.224Z,12.25
2022-08-29T02:57:55.219Z,14.30
2022-08-29T03:00:26.808Z,12.25
2022-08-29T03:02:58.194Z,11.05
2022-08-29T03:05:29.892Z,10.80
2022-08-29T03:07:59.148Z,10.50
2022-08-29T03:10:27.732Z,12.55
2022-08-29T03:12:56.799Z,8.20
2022-08-29T03:15:25.411Z,12.00
2022-08-29T03:17:54.582Z,11.00
2022-08-29T03:20:26.008Z,21.77
2022-08-29T03:22:55.669Z,13.95
2022-08-29T03:25:25.585Z,12.95
2022-08-29T03:27:53.834Z,12.45
2022-08-29T03:30:24.070Z,9.70
2022-08-29T03:32:53.147Z,9.73
2022-08-29T03:35:22.505Z,9.77
2022-08-29T03:37:52.771Z,9.80
2022-08-29T03:40:21.137Z,10.93
2022-08-29T03:42:49.746Z,12.45
2022-08-29T03:45:19.065Z,11.88
2022-08-29T03:47:47.555Z,9.48
2022-08-29T03:50:19.281Z,11.95
2022-08-29T03:52:48.071Z,10.13
2022-08-29T03:55:17.934Z,12.07
2022-08-29T03:57:46.199Z,15.50
2022-08-29T04:00:17.721Z,9.38
2022-08-29T04:02:47.728Z,11.55
2022-08-29T04:05:18.760Z,9.50
2022-08-29T04:07:49.612Z,9.98
2022-08-29T04:10:23.750Z,10.70
2022-08-29T04:12:54.859Z,14.68
2022-08-29T04:15:24.430Z,11.07
2022-08-29T04:17:54.266Z,12.65
2022-08-29T04:20:25.579Z,13.43
2022-08-29T04:22:55.361Z,18.90
2022-08-29T04:25:27.132Z,13.25
2022-08-29T04:27:56.122Z,13.80
2022-08-29T04:30:26.212Z,12.25
2022-08-29T04:32:54.957Z,13.00
2022-08-29T04:35:23.167Z,16.95
2022-08-29T04:37:51.570Z,13.90
2022-08-29T04:40:23.015Z,15.27
2022-08-29T04:42:53.022Z,8.85
2022-08-29T04:45:23.541Z,14.00
2022-08-29T04:47:52.701Z,11.10
2022-08-29T04:50:22.785Z,16.75
2022-08-29T04:52:53.422Z,14.70
2022-08-29T04:55:25.607Z,13.02
2022-08-29T04:57:57.429Z,16.58
2022-08-29T05:00:28.702Z,9.80
2022-08-29T05:02:59.535Z,10.00
2022-08-29T05:05:27.844Z,10.35
2022-08-29T05:07:56.245Z,11.52
2022-08-29T05:10:24.602Z,16.38
2022-08-29T05:12:52.779Z,19.40
2022-08-29T05:15:22.444Z,12.57
2022-08-29T05:17:50.586Z,14.68
2022-08-29T05:20:19.381Z,17.55
2022-08-29T05:22:47.494Z,11.60
2022-08-29T05:25:18.478Z,16.23
2022-08-29T05:27:47.621Z,20.02
2022-08-29T05:30:16.458Z,20.85
2022-08-29T05:33:03.883Z,13.05
2022-08-29T05:35:32.326Z,15.27
2022-08-29T05:38:00.563Z,20.08
2022-08-29T05:40:29.190Z,16.73
2022-08-29T05:42:57.555Z,10.52
2022-08-29T05:45:26.600Z,13.73
2022-08-29T05:47:56.351Z,16.38
2022-08-29T05:50:26.067Z,16.17
2022-08-29T05:52:57.247Z,13.95
2022-08-29T05:55:26.371Z,12.35
2022-08-29T05:57:55.300Z,11.00
2022-08-29T06:00:23.602Z,10.00
2022-08-29T06:02:51.958Z,11.68
2022-08-29T06:05:20.342Z,8.95
2022-08-29T06:07:49.771Z,14.68
2022-08-29T06:10:18.217Z,11.50
2022-08-29T06:12:46.351Z,12.00
2022-08-29T06:15:14.894Z,17.88
2022-08-29T06:17:42.973Z,11.45
2022-08-29T06:20:12.159Z,13.70
2022-08-29T06:22:40.736Z,14.15
2022-08-29T06:25:37.373Z,12.10
2022-08-29T06:27:59.320Z,14.18
2022-08-29T06:30:27.782Z,13.77
2022-08-29T06:32:55.951Z,11.85
2022-08-29T06:35:24.293Z,15.00
2022-08-29T06:37:53.558Z,13.00
2022-08-29T06:40:23.280Z,11.65
2022-08-29T06:42:51.676Z,11.80
2022-08-29T06:45:19.868Z,9.43
2022-08-29T06:47:48.788Z,9.80
2022-08-29T06:50:18.264Z,12.15
2022-08-29T06:52:47.183Z,16.38
2022-08-29T06:55:15.992Z,10.50
2022-08-29T06:57:48.461Z,14.57
2022-08-29T07:00:22.171Z,19.52
2022-08-29T07:05:21.697Z,16.10
2022-08-29T07:07:50.198Z,16.58
2022-08-29T07:10:22.557Z,8.45
2022-08-29T07:12:52.516Z,11.43
2022-08-29T07:15:22.426Z,11.32
2022-08-29T07:17:51.041Z,10.52
2022-08-29T07:20:19.325Z,15.15
2022-08-29T07:22:51.487Z,11.13
2022-08-29T07:25:21.314Z,14.93
2022-08-29T07:27:53.411Z,16.02
2022-08-29T07:30:23.535Z,13.68
2022-08-29T07:32:51.872Z,12.63
2022-08-29T07:35:30.158Z,8.20
2022-08-29T07:37:59.073Z,11.50
2022-08-29T07:40:27.459Z,10.95
2022-08-29T07:42:55.848Z,5.90
2022-08-29T07:45:25.431Z,9.35
2022-08-29T07:47:53.903Z,8.95
2022-08-29T07:50:22.515Z,8.75
2022-08-29T07:52:52.428Z,9.98
2022-08-29T07:55:22.018Z,5.93
2022-08-29T07:57:52.605Z,5.50
2022-08-29T08:00:21.824Z,5.40
2022-08-29T08:02:53.389Z,5.57
2022-08-29T08:05:21.450Z,3.50
2022-08-29T08:07:55.651Z,3.80
2022-08-29T08:10:24.659Z,5.53
2022-08-29T08:12:52.878Z,3.75
2022-08-29T08:15:22.826Z,4.45
2022-08-29T08:17:52.396Z,4.10
2022-08-29T08:20:20.780Z,3.65
2022-08-29T08:22:52.052Z,3.78
2022-08-29T08:25:24.294Z,5.05
2022-08-29T08:27:52.907Z,5.00
2022-08-29T08:30:21.832Z,2.72
2022-08-29T08:35:24.811Z,3.33
2022-08-29T08:37:53.364Z,3.38
2022-08-29T08:40:26.962Z,3.22
2022-08-29T08:43:00.403Z,5.25
2022-08-29T08:45:34.098Z,3.08
2022-08-29T08:48:10.265Z,2.38
2022-08-29T08:50:43.586Z,2.42
2022-08-29T08:53:18.020Z,1.90
2022-08-29T08:55:49.806Z,4.93
2022-08-29T08:58:33.334Z,2.38
2022-08-29T09:01:14.301Z,1.95
2022-08-29T09:04:13.183Z,2.08
2022-08-29T09:06:55.105Z,1.50
2022-08-29T09:09:36.382Z,1.13
2022-08-29T09:12:16.756Z,0.88
2022-08-29T09:14:59.707Z,1.08
2022-08-29T09:17:37.029Z,2.17
2022-08-29T09:20:11.068Z,1.15
2022-08-29T09:22:41.649Z,1.35
2022-08-29T09:25:12.319Z,1.08
2022-08-29T09:27:40.728Z,2.05
2022-08-29T09:30:12.458Z,1.25
2022-08-29T09:32:57.883Z,0.80
2022-08-29T09:35:34.650Z,1.23
2022-08-29T09:38:05.075Z,2.08
2022-08-29T09:41:02.076Z,1.10
2022-08-29T09:43:50.357Z,4.90
2022-08-29T09:46:23.555Z,3.42
2022-08-29T09:48:54.025Z,1.30
2022-08-29T09:51:28.402Z,0.80
2022-08-29T09:54:12.780Z,1.30
2022-08-29T09:56:49.647Z,1.40
2022-08-29T09:59:25.320Z,1.38
2022-08-29T10:02:20.665Z,0.57
2022-08-29T10:04:51.830Z,2.17
2022-08-29T10:07:24.084Z,2.88
2022-08-29T10:10:00.391Z,0.55
2022-08-29T10:12:36.609Z,0.50
2022-08-29T10:15:09.719Z,0.70
2022-08-29T10:17:59.384Z,0.63
2022-08-29T10:20:36.475Z,1.98
2022-08-29T10:23:10.591Z,1.05
2022-08-29T10:25:48.040Z,0.60
2022-08-29T10:28:24.525Z,2.67
2022-08-29T10:31:00.673Z,2.47
2022-08-29T10:33:47.622Z,0.80
2022-08-29T10:36:20.002Z,0.77
2022-08-29T10:38:55.305Z,2.08
2022-08-29T10:41:34.254Z,1.20
2022-08-29T10:44:20.275Z,1.02
2022-08-29T10:47:12.920Z,0.68
2022-08-29T10:49:57.821Z,0.63
2022-08-29T10:52:31.549Z,0.50
2022-08-29T10:55:12.125Z,2.72
2022-08-29T10:57:54.293Z,0.30
2022-08-29T11:00:25.466Z,1.02
2022-08-29T11:02:59.245Z,0.68
2022-08-29T11:05:30.346Z,2.15
2022-08-29T11:08:05.712Z,1.67
2022-08-29T11:10:40.664Z,1.10
2022-08-29T11:13:13.242Z,0.65
2022-08-29T11:15:45.918Z,0.52
2022-08-29T11:18:24.751Z,0.70
2022-08-29T11:20:58.002Z,1.17
2022-08-29T11:23:33.553Z,0.77
2022-08-29T11:26:08.570Z,1.83
2022-08-29T11:31:23.144Z,1.50
2022-08-29T11:34:01.219Z,0.98
2022-08-29T11:36:44.087Z,1.45
2022-08-29T11:39:40.982Z,0.65
2022-08-29T11:42:13.340Z,3.08
2022-08-29T11:44:45.517Z,1.35
2022-08-29T11:47:40.780Z,2.27
2022-08-29T11:50:24.650Z,1.02
2022-08-29T11:55:35.832Z,1.02
2022-08-29T11:58:43.007Z,1.20
2022-08-29T12:01:53.057Z,1.77
2022-08-29T12:04:54.044Z,0.95
2022-08-29T12:07:33.514Z,4.10
2022-08-29T12:10:03.631Z,1.10
2022-08-29T12:12:47.324Z,1.42
2022-08-29T12:15:51.972Z,1.23
2022-08-29T12:18:42.327Z,1.40
2022-08-29T12:21:44.420Z,1.15
2022-08-29T12:24:30.278Z,2.00
2022-08-29T12:26:59.187Z,2.10
2022-08-29T12:29:30.960Z,1.90
2022-08-29T12:32:23.820Z,1.60
2022-08-29T12:35:20.105Z,1.63
2022-08-29T12:38:03.287Z,1.33
2022-08-29T12:40:43.443Z,2.15
2022-08-29T12:43:27.735Z,2.47
2022-08-29T12:45:57.495Z,0.80
2022-08-29T12:48:33.416Z,1.92
2022-08-29T12:51:02.590Z,2.70
2022-08-29T12:53:33.384Z,1.60
2022-08-29T12:56:05.084Z,3.08
2022-08-29T12:58:37.849Z,0.75
2022-08-29T13:01:08.898Z,1.08
2022-08-29T13:03:38.343Z,0.70
2022-08-29T13:06:11.522Z,2.70
2022-08-29T13:08:41.129Z,2.88
2022-08-29T13:11:11.681Z,0.73
2022-08-29T13:13:40.034Z,0.65
2022-08-29T13:16:22.930Z,1.20
2022-08-29T13:19:07.720Z,3.08
2022-08-29T13:21:38.774Z,0.85
2022-08-29T13:24:13.481Z,1.67
2022-08-29T13:27:01.070Z,2.50
2022-08-29T13:29:36.962Z,1.80
2022-08-29T13:32:27.597Z,0.70
2022-08-29T13:35:07.354Z,1.23
2022-08-29T13:37:37.698Z,2.08
2022-08-29T13:40:32.292Z,2.25
2022-08-29T13:43:01.928Z,1.23
2022-08-29T13:45:30.556Z,3.42
2022-08-29T13:48:14.063Z,0.80
2022-08-29T13:50:43.590Z,1.40
2022-08-29T13:53:11.936Z,1.23
2022-08-29T13:55:43.003Z,1.50
2022-08-29T13:58:14.639Z,1.90
2022-08-29T14:00:43.890Z,0.65
2022-08-29T14:03:13.446Z,0.65
2022-08-29T14:05:43.892Z,1.85
2022-08-29T14:08:13.500Z,1.63
2022-08-29T14:10:41.850Z,0.75
2022-08-29T14:13:10.073Z,0.88
2022-08-29T14:15:39.281Z,0.82
2022-08-29T14:18:07.565Z,1.17
2022-08-29T14:20:37.238Z,1.73
2022-08-29T14:23:07.182Z,0.55
2022-08-29T14:25:35.392Z,1.10
2022-08-29T14:28:03.887Z,0.43
2022-08-29T14:30:32.487Z,0.47
2022-08-29T14:33:00.532Z,0.75
2022-08-29T14:35:31.586Z,1.50
2022-08-29T14:38:00.779Z,2.75
2022-08-29T14:40:32.351Z,2.40
2022-08-29T14:43:01.718Z,1.83
2022-08-29T14:45:31.286Z,1.10
2022-08-29T14:48:00.675Z,1.65
2022-08-29T14:50:28.907Z,0.50
2022-08-29T14:52:57.049Z,0.68
2022-08-29T14:55:25.389Z,4.13
2022-08-29T14:57:54.994Z,4.30
2022-08-29T15:00:25.836Z,1.83
2022-08-29T15:02:54.301Z,3.17
2022-08-29T15:05:23.455Z,2.13
2022-08-29T15:07:52.655Z,1.63
2022-08-29T15:10:23.321Z,0.60
2022-08-29T15:12:51.930Z,0.40
2022-08-29T15:15:29.180Z,0.52
2022-08-29T15:17:57.737Z,0.60
2022-08-29T15:20:46.192Z,0.85
2022-08-29T15:23:14.531Z,0.40
2022-08-29T15:25:44.935Z,0.95
2022-08-29T15:28:20.183Z,1.85
2022-08-29T15:30:49.702Z,2.65
2022-08-29T15:33:18.007Z,1.73
2022-08-29T15:35:46.427Z,3.72
2022-08-29T15:38:14.844Z,1.33
2022-08-29T15:40:43.282Z,4.38
2022-08-29T15:43:11.821Z,2.28
2022-08-29T15:45:40.295Z,1.02
2022-08-29T15:48:11.855Z,1.90
2022-08-29T15:50:42.309Z,2.15
2022-08-29T15:53:10.545Z,1.92
2022-08-29T15:55:42.514Z,1.88
2022-08-29T15:58:12.767Z,3.58
2022-08-29T16:00:44.048Z,1.40
2022-08-29T16:03:13.781Z,0.50
2022-08-29T16:05:41.893Z,3.75
2022-08-29T16:08:16.583Z,0.40
2022-08-29T16:10:46.412Z,0.93
2022-08-29T16:13:14.585Z,0.40
2022-08-29T16:15:43.672Z,0.40
2022-08-29T16:18:13.308Z,1.33
2022-08-29T16:20:41.838Z,0.68
2022-08-29T16:23:12.709Z,3.08
2022-08-29T16:25:41.437Z,6.22
2022-08-29T16:28:12.552Z,2.55
2022-08-29T16:30:46.159Z,1.58
2022-08-29T16:33:16.318Z,0.70
2022-08-29T16:35:44.731Z,1.70
2022-08-29T16:38:13.040Z,0.60
2022-08-29T16:40:41.543Z,2.80
2022-08-29T16:43:10.457Z,2.83
2022-08-29T16:45:39.208Z,1.33
2022-08-29T16:48:14.771Z,2.85
2022-08-29T16:50:47.116Z,1.10
2022-08-29T16:53:15.695Z,1.95
2022-08-29T16:55:46.034Z,1.38
2022-08-29T16:58:31.464Z,2.30
2022-08-29T17:01:01.937Z,1.48
2022-08-29T17:03:30.016Z,1.00
2022-08-29T17:06:00.029Z,0.40
2022-08-29T17:08:27.084Z,2.85
2022-08-29T17:10:54.316Z,3.00
2022-08-29T17:13:21.408Z,3.15
2022-08-29T17:15:48.519Z,1.40
2022-08-29T17:18:16.948Z,3.15
2022-08-29T17:20:46.385Z,1.02
2022-08-29T17:23:16.819Z,1.27
2022-08-29T17:25:44.974Z,0.88
2022-08-29T17:28:27.884Z,1.30
2022-08-29T17:30:57.540Z,0.80
2022-08-29T17:33:26.308Z,2.70
2022-08-29T17:35:54.921Z,5.10
2022-08-29T17:38:24.584Z,4.65
2022-08-29T17:40:58.528Z,5.65
2022-08-29T17:43:28.145Z,3.13
2022-08-29T17:45:57.511Z,1.90
2022-08-29T17:48:29.066Z,3.55
2022-08-29T17:50:57.369Z,5.22
2022-08-29T17:53:27.452Z,6.05
2022-08-29T17:55:56.270Z,4.05
2022-08-29T17:58:24.470Z,2.30
2022-08-29T18:00:54.099Z,1.48
2022-08-29T18:03:22.211Z,2.25
2022-08-29T18:05:50.433Z,1.55
2022-08-29T18:08:18.556Z,2.00
2022-08-29T18:10:48.179Z,1.20
2022-08-29T18:13:21.019Z,1.00
2022-08-29T18:15:51.566Z,1.40
2022-08-29T18:18:21.697Z,1.25
2022-08-29T18:20:49.991Z,0.93
2022-08-29T18:23:18.194Z,2.45
2022-08-29T18:25:47.834Z,1.40
2022-08-29T18:28:16.220Z,1.45
2022-08-29T18:30:44.530Z,2.33
2022-08-29T18:33:13.247Z,1.33
2022-08-29T18:35:41.828Z,1.00
2022-08-29T18:38:10.584Z,0.70
2022-08-29T18:40:40.015Z,2.72
2022-08-29T18:43:10.151Z,1.45
2022-08-29T18:45:40.225Z,1.00
2022-08-29T18:48:08.845Z,1.58
2022-08-29T18:50:37.599Z,0.82
2022-08-29T18:53:11.361Z,2.33
2022-08-29T18:55:40.097Z,0.75
2022-08-29T18:58:10.285Z,1.38
2022-08-29T19:00:39.479Z,2.63
2022-08-29T19:03:07.826Z,1.38
2022-08-29T19:05:36.795Z,2.25
2022-08-29T19:08:05.839Z,1.98
2022-08-29T19:10:34.222Z,2.15
2022-08-29T19:13:02.805Z,2.45
2022-08-29T19:15:32.302Z,4.32
2022-08-29T19:18:00.615Z,2.55
2022-08-29T19:20:46.199Z,2.38
2022-08-29T19:23:14.625Z,4.15
2022-08-29T19:25:43.175Z,2.25
2022-08-29T19:28:13.149Z,2.28
2022-08-29T19:30:43.112Z,2.65
2022-08-29T19:33:12.256Z,4.00
2022-08-29T19:35:40.706Z,1.83
2022-08-29T19:38:10.004Z,2.33
2022-08-29T19:40:39.520Z,3.65
2022-08-29T19:45:58.010Z,2.60
2022-08-29T19:48:27.830Z,2.60
2022-08-29T19:50:56.555Z,3.95
2022-08-29T19:53:26.893Z,7.30
2022-08-29T19:55:57.629Z,2.05
2022-08-29T19:58:31.556Z,3.88
2022-08-29T20:01:02.641Z,3.00
2022-08-29T20:03:31.966Z,1.98
2022-08-29T20:06:05.661Z,5.53
2022-08-29T20:08:35.243Z,1.30
2022-08-29T20:11:06.624Z,1.15
2022-08-29T20:13:36.210Z,3.40
2022-08-29T20:16:12.226Z,1.67
2022-08-29T20:18:41.142Z,3.47
2022-08-29T20:21:09.670Z,1.77
2022-08-29T20:23:38.870Z,5.35
2022-08-29T20:26:12.862Z,2.35
2022-08-29T20:28:41.825Z,3.28
2022-08-29T20:31:11.547Z,2.08
2022-08-29T20:33:41.443Z,1.92
2022-08-29T20:36:27.279Z,2.35
2022-08-29T20:38:55.670Z,2.17
2022-08-29T20:41:23.943Z,4.03
2022-08-29T20:43:52.316Z,2.60
2022-08-29T20:46:21.953Z,2.50
2022-08-29T20:48:50.268Z,2.88
2022-08-29T20:51:18.383Z,1.98
2022-08-29T20:53:46.949Z,2.17
2022-08-29T20:56:15.239Z,2.92
2022-08-29T20:58:43.678Z,2.47
2022-08-29T21:01:11.836Z,1.48
2022-08-29T21:03:58.691Z,2.65
2022-08-29T21:06:27.084Z,3.60
2022-08-29T21:08:55.974Z,1.52
2022-08-29T21:11:24.472Z,2.63
2022-08-29T21:13:53.449Z,1.77
2022-08-29T21:16:22.219Z,1.30
2022-08-29T21:18:53.370Z,1.98
2022-08-29T21:21:24.694Z,2.80
2022-08-29T21:23:53.354Z,2.40
2022-08-29T21:26:21.723Z,1.48
2022-08-29T21:28:49.932Z,1.75
2022-08-29T21:31:19.546Z,2.38
2022-08-29T21:33:47.843Z,1.98
2022-08-29T21:36:19.351Z,3.28
2022-08-29T21:38:48.785Z,3.67
2022-08-29T21:41:16.884Z,2.63
2022-08-29T21:43:45.236Z,3.17
2022-08-29T21:46:17.823Z,1.45
2022-08-29T21:48:46.919Z,3.05
2022-08-29T21:51:18.827Z,3.22
2022-08-29T21:53:49.296Z,4.30
2022-08-29T21:56:18.152Z,3.05
2022-08-29T21:58:49.661Z,2.50
2022-08-29T22:01:18.217Z,6.63
2022-08-29T22:03:50.391Z,2.50
2022-08-29T22:06:19.106Z,2.55
2022-08-29T22:08:49.012Z,1.90
2022-08-29T22:11:22.145Z,3.95
2022-08-29T22:13:51.207Z,3.53
2022-08-29T22:16:31.071Z,3.78
2022-08-29T22:19:02.472Z,4.43
2022-08-29T22:21:33.655Z,1.45
2022-08-29T22:24:03.911Z,1.40
2022-08-29T22:26:32.251Z,1.50
2022-08-29T22:29:00.780Z,1.55
2022-08-29T22:31:29.335Z,2.33
2022-08-29T22:33:57.461Z,4.00
2022-08-29T22:36:25.936Z,4.25
2022-08-29T22:38:56.598Z,2.42
2022-08-29T22:41:26.326Z,2.70
2022-08-29T22:44:19.877Z,3.58
2022-08-29T22:46:44.830Z,2.58
2022-08-29T22:49:13.846Z,2.35
2022-08-29T22:51:41.917Z,1.98
2022-08-29T22:54:27.882Z,4.90
2022-08-29T22:56:57.345Z,2.47
2022-08-29T22:59:25.593Z,5.75
2022-08-29T23:01:53.992Z,1.83
2022-08-29T23:04:22.215Z,3.13
2022-08-29T23:06:50.441Z,3.28
2022-08-29T23:09:19.105Z,2.53
2022-08-29T23:11:47.332Z,4.05
2022-08-29T23:14:17.113Z,3.90
2022-08-29T23:16:49.264Z,4.85
2022-08-29T23:19:17.781Z,4.85
2022-08-29T23:21:46.528Z,5.55
2022-08-29T23:24:14.654Z,3.10
2022-08-29T23:26:43.527Z,2.28
2022-08-29T23:29:11.787Z,3.28
2022-08-29T23:31:41.656Z,1.75
2022-08-29T23:34:09.688Z,2.70
2022-08-29T23:36:38.009Z,6.47
2022-08-29T23:39:06.137Z,3.67
2022-08-29T23:41:35.520Z,2.50
2022-08-29T23:44:04.401Z,4.07
2022-08-29T23:46:32.756Z,5.10
2022-08-29T23:49:02.311Z,2.92
2022-08-29T23:51:30.589Z,3.10
2022-08-29T23:53:58.891Z,1.73
2022-08-29T23:56:27.459Z,3.75
2022-08-29T23:58:56.694Z,3.30
